Aérodrome :
LOGIN :

S'inscrire | Disclaimer

   EN    FR    IT 

 










Légende :    VFR   VFR Marginal   IFR   IFR Intensif   IFR Très Intensif
Visi : 
Plafond : 
>= 8 km
>= 3000ft
5 à 8 km
1000 à 3000 ft
1500m à 5 km
500 à 1000 ft
800 à 1500m
200 à 500 ft
< 800m
< 200 ft
Symboles :   Orages  Brouillard  Fortes neiges  Fortes précipitations  Vent > 20 kt
SIGMETs :   Divers  Orages  Givrage  Turbulence  Onde Orograph.  Cendres Volcan.







- Altitude de l'aérodrome : 12 ft
- Code IATA : BCN


LEBL - Barcelone

DERNIER METAR :
  • 120530Z 33009KT 9999 FEW020 07/05 Q1019 NOSIG

METARs EXPIRÉS :
  • 120500Z 33010KT 9999 FEW022 07/05 Q1019 NOSIG
  • 120430Z 33010KT 9999 FEW018 08/05 Q1019 NOSIG
  • 120400Z 33009KT 310V010 9999 FEW019 08/05 Q1019 NOSIG
  • 120330Z 34008KT 310V010 9000 FEW017 07/05 Q1019 NOSIG
  • 120300Z 33009KT 9000 NSC 07/05 Q1019 NOSIG

TAF TAF LEBL
Valide du 12 à 06h jusqu'au 13 à 06h UTC


120500Z 1206/1306 34007KT 9999 FEW025 TX15/1212Z TN07/1306Z
TEMPO 1206/1210 34010G22KT
TEMPO 1212/1219 VRB04KT
Pas de NOTAMs connus pour ce terrain.



MET'MAP, la Météo Aéronautique d'un coup d'oeil ! - Copyright ORBIFLY Décembre 2007 - Disclaimer

ORBIFLY MET'MAP TEAM :

Programmation & Développement : Alexandra Zaïnal
Conception & Développement : Baudouin d'Aumeries
Co-Programmation & Développement : Marc-Olivier Méhu
Soutien technique & logistique : Manuel Goepfert

Contact : metmap@orbifly.com




SOURCES & CREDITS :

   NOAA